createdAt,value
2022-10-11T00:01:27.301Z,2.45
2022-10-11T00:03:53.720Z,2.35
2022-10-11T00:06:20.312Z,2.47
2022-10-11T00:08:46.985Z,2.42
2022-10-11T00:11:13.483Z,1.67
2022-10-11T00:13:39.833Z,1.95
2022-10-11T00:16:11.023Z,1.63
2022-10-11T00:18:38.105Z,2.35
2022-10-11T00:21:06.921Z,1.95
2022-10-11T00:23:33.859Z,1.65
2022-10-11T00:26:02.968Z,1.75
2022-10-11T00:28:30.327Z,0.95
2022-10-11T00:30:57.205Z,1.83
2022-10-11T00:33:23.794Z,1.05
2022-10-11T00:35:50.386Z,1.42
2022-10-11T00:38:17.168Z,1.55
2022-10-11T00:40:44.733Z,1.17
2022-10-11T00:43:24.679Z,1.52
2022-10-11T00:45:56.792Z,1.55
2022-10-11T00:48:48.973Z,1.23
2022-10-11T00:51:23.896Z,2.10
2022-10-11T00:53:51.842Z,1.55
2022-10-11T00:56:26.254Z,1.38
2022-10-11T00:58:55.500Z,1.70
2022-10-11T01:01:21.865Z,1.40
2022-10-11T01:03:48.236Z,0.95
2022-10-11T01:06:14.646Z,1.70
2022-10-11T01:08:41.125Z,1.42
2022-10-11T01:11:12.361Z,1.80
2022-10-11T01:13:52.195Z,1.58
2022-10-11T01:16:30.951Z,1.58
2022-10-11T01:19:23.261Z,1.50
2022-10-11T01:22:04.029Z,1.83
2022-10-11T01:24:52.008Z,2.10
2022-10-11T01:27:54.004Z,2.53
2022-10-11T01:30:33.194Z,1.98
2022-10-11T01:33:32.652Z,1.73
2022-10-11T01:36:13.637Z,1.30
2022-10-11T01:38:52.413Z,1.95
2022-10-11T01:41:24.446Z,1.52
2022-10-11T01:43:57.463Z,1.60
2022-10-11T01:46:24.350Z,1.92
2022-10-11T01:48:53.455Z,1.55
2022-10-11T01:51:24.618Z,1.80
2022-10-11T01:54:20.386Z,2.33
2022-10-11T01:57:29.236Z,1.52
2022-10-11T02:00:00.176Z,1.75
2022-10-11T02:02:38.874Z,1.45
2022-10-11T02:05:15.795Z,2.10
2022-10-11T02:07:53.409Z,1.38
2022-10-11T02:10:35.191Z,1.92
2022-10-11T02:13:09.066Z,2.00
2022-10-11T02:15:39.109Z,1.58
2022-10-11T02:18:10.734Z,1.17
2022-10-11T02:20:41.154Z,1.83
2022-10-11T02:23:17.705Z,1.95
2022-10-11T02:25:45.456Z,1.65
2022-10-11T02:28:16.733Z,1.88
2022-10-11T02:30:47.689Z,1.45
2022-10-11T02:33:17.831Z,1.92
2022-10-11T02:35:48.013Z,1.55
2022-10-11T02:38:26.717Z,2.15
2022-10-11T02:41:21.802Z,2.22
2022-10-11T02:43:56.852Z,1.10
2022-10-11T02:46:25.117Z,0.98
2022-10-11T02:48:52.117Z,1.48
2022-10-11T02:51:18.655Z,1.73
2022-10-11T02:53:45.355Z,2.03
2022-10-11T02:56:12.074Z,1.95
2022-10-11T02:58:38.368Z,1.52
2022-10-11T03:01:04.838Z,1.27
2022-10-11T03:03:31.338Z,1.75
2022-10-11T03:06:02.610Z,1.35
2022-10-11T03:08:29.483Z,1.60
2022-10-11T03:10:56.161Z,1.58
2022-10-11T03:13:22.576Z,1.85
2022-10-11T03:16:02.885Z,1.38
2022-10-11T03:18:30.487Z,1.63
2022-10-11T03:20:56.936Z,1.75
2022-10-11T03:23:23.284Z,1.50
2022-10-11T03:25:49.702Z,1.35
2022-10-11T03:28:16.033Z,1.48
2022-10-11T03:30:42.486Z,1.92
2022-10-11T03:33:08.813Z,1.80
2022-10-11T03:35:35.120Z,1.90
2022-10-11T03:38:01.790Z,2.42
2022-10-11T03:40:28.213Z,2.25
2022-10-11T03:42:54.864Z,1.95
2022-10-11T03:45:21.258Z,1.48
2022-10-11T03:47:47.599Z,1.13
2022-10-11T03:50:13.931Z,1.58
2022-10-11T03:52:40.334Z,2.03
2022-10-11T03:55:07.237Z,1.65
2022-10-11T03:57:33.596Z,1.75
2022-10-11T04:00:00.024Z,1.65
2022-10-11T04:02:26.476Z,1.67
2022-10-11T04:04:52.866Z,1.80
2022-10-11T04:07:19.215Z,2.50
2022-10-11T04:09:45.837Z,2.22
2022-10-11T04:12:12.156Z,1.77
2022-10-11T04:14:38.468Z,1.98
2022-10-11T04:17:05.122Z,1.63
2022-10-11T04:19:31.527Z,1.88
2022-10-11T04:21:57.944Z,1.80
2022-10-11T04:24:24.308Z,1.27
2022-10-11T04:26:51.129Z,1.67
2022-10-11T04:29:19.682Z,1.67
2022-10-11T04:31:45.990Z,1.63
2022-10-11T04:34:12.446Z,1.33
2022-10-11T04:36:38.891Z,1.63
2022-10-11T04:39:06.858Z,2.20
2022-10-11T04:41:33.903Z,1.13
2022-10-11T04:44:01.764Z,2.10
2022-10-11T04:46:28.541Z,2.17
2022-10-11T04:48:55.300Z,2.00
2022-10-11T04:51:21.890Z,1.75
2022-10-11T04:53:49.370Z,1.92
2022-10-11T04:56:16.321Z,1.85
2022-10-11T04:58:42.684Z,2.35
2022-10-11T05:01:09.694Z,1.70
2022-10-11T05:03:36.110Z,1.42
2022-10-11T05:06:05.663Z,1.65
2022-10-11T05:08:33.295Z,1.95
2022-10-11T05:11:04.770Z,1.85
2022-10-11T05:13:32.356Z,2.20
2022-10-11T05:15:58.919Z,2.78
2022-10-11T05:18:25.935Z,2.22
2022-10-11T05:20:59.735Z,2.03
2022-10-11T05:23:26.242Z,2.35
2022-10-11T05:25:52.526Z,2.33
2022-10-11T05:28:18.916Z,1.95
2022-10-11T05:30:45.374Z,4.43
2022-10-11T05:33:11.938Z,3.15
2022-10-11T05:35:38.926Z,2.63
2022-10-11T05:38:05.449Z,2.10
2022-10-11T05:40:32.161Z,2.58
2022-10-11T05:42:58.506Z,4.00
2022-10-11T05:45:25.398Z,5.50
2022-10-11T05:47:53.822Z,3.80
2022-10-11T05:50:24.158Z,3.35
2022-10-11T05:52:51.121Z,5.50
2022-10-11T05:55:17.738Z,3.95
2022-10-11T05:57:44.162Z,4.60
2022-10-11T06:00:11.296Z,4.38
2022-10-11T06:02:37.762Z,5.20
2022-10-11T06:05:04.436Z,3.55
2022-10-11T06:07:30.922Z,3.38
2022-10-11T06:09:57.375Z,2.83
2022-10-11T06:12:23.770Z,3.17
2022-10-11T06:14:50.634Z,3.00
2022-10-11T06:17:17.021Z,2.80
2022-10-11T06:19:43.717Z,2.92
2022-10-11T06:22:12.156Z,2.65
2022-10-11T06:24:38.477Z,3.15
2022-10-11T06:27:05.253Z,2.05
2022-10-11T06:29:31.798Z,2.08
2022-10-11T06:31:58.176Z,2.85
2022-10-11T06:34:24.510Z,2.28
2022-10-11T06:36:51.121Z,2.35
2022-10-11T06:39:18.888Z,2.22
2022-10-11T06:41:45.670Z,2.08
2022-10-11T06:44:14.263Z,3.03
2022-10-11T06:46:41.589Z,2.65
2022-10-11T06:49:08.960Z,2.30
2022-10-11T06:51:35.572Z,2.22
2022-10-11T06:54:02.395Z,2.47
2022-10-11T06:56:30.365Z,2.58
2022-10-11T06:58:58.316Z,2.28
2022-10-11T07:01:25.896Z,2.47
2022-10-11T07:03:53.711Z,3.15
2022-10-11T07:06:25.855Z,2.72
2022-10-11T07:08:53.083Z,2.97
2022-10-11T07:11:22.349Z,3.30
2022-10-11T07:13:54.647Z,3.13
2022-10-11T07:16:21.252Z,3.03
2022-10-11T07:18:48.562Z,3.90
2022-10-11T07:21:16.131Z,3.20
2022-10-11T07:23:43.787Z,2.60
2022-10-11T07:26:11.803Z,2.90
2022-10-11T07:28:40.267Z,3.95
2022-10-11T07:31:12.740Z,3.97
2022-10-11T07:33:39.545Z,3.38
2022-10-11T07:36:07.816Z,3.50
2022-10-11T07:38:34.482Z,3.13
2022-10-11T07:41:05.068Z,2.83
2022-10-11T07:43:32.012Z,3.10
2022-10-11T07:45:59.087Z,3.60
2022-10-11T07:48:25.698Z,3.47
2022-10-11T07:50:52.184Z,3.35
2022-10-11T07:53:18.683Z,3.33
2022-10-11T07:55:45.108Z,3.25
2022-10-11T07:58:12.993Z,2.85
2022-10-11T08:00:39.977Z,2.75
2022-10-11T08:03:06.965Z,4.22
2022-10-11T08:05:33.997Z,3.67
2022-10-11T08:08:00.447Z,3.25
2022-10-11T08:10:32.946Z,3.65
2022-10-11T08:13:04.060Z,3.28
2022-10-11T08:15:31.264Z,3.22
2022-10-11T08:17:57.895Z,3.45
2022-10-11T08:20:24.525Z,2.92
2022-10-11T08:22:50.882Z,3.90
2022-10-11T08:25:17.452Z,3.10
2022-10-11T08:27:44.011Z,2.30
2022-10-11T08:30:12.036Z,3.67
2022-10-11T08:32:38.527Z,3.03
2022-10-11T08:35:05.261Z,3.38
2022-10-11T08:37:31.761Z,3.25
2022-10-11T08:39:58.422Z,2.78
2022-10-11T08:42:35.323Z,2.55
2022-10-11T08:45:11.404Z,2.85
2022-10-11T08:47:44.857Z,2.95
2022-10-11T08:50:23.547Z,3.50
2022-10-11T08:52:58.676Z,3.03
2022-10-11T08:55:49.772Z,3.03
2022-10-11T08:58:21.910Z,2.78
2022-10-11T09:00:52.690Z,2.47
2022-10-11T09:03:28.418Z,2.67
2022-10-11T09:06:04.965Z,2.63
2022-10-11T09:08:56.623Z,3.47
2022-10-11T09:11:35.036Z,2.80
2022-10-11T09:14:17.023Z,2.72
2022-10-11T09:17:02.601Z,2.65
2022-10-11T09:19:47.634Z,2.33
2022-10-11T09:22:26.818Z,2.50
2022-10-11T09:25:22.356Z,2.40
2022-10-11T09:28:17.809Z,2.50
2022-10-11T09:30:50.547Z,1.98
2022-10-11T09:33:28.290Z,2.40
2022-10-11T09:35:57.349Z,1.83
2022-10-11T09:38:38.631Z,1.30
2022-10-11T09:41:09.552Z,2.22
2022-10-11T09:43:35.954Z,2.25
2022-10-11T09:46:02.975Z,1.98
2022-10-11T09:48:41.856Z,2.15
2022-10-11T09:51:16.916Z,2.30
2022-10-11T09:53:49.513Z,2.22
2022-10-11T09:56:16.059Z,2.40
2022-10-11T09:58:42.470Z,1.63
2022-10-11T10:01:11.620Z,2.35
2022-10-11T10:03:41.421Z,1.85
2022-10-11T10:06:10.293Z,1.75
2022-10-11T10:08:37.489Z,2.30
2022-10-11T10:11:05.572Z,2.08
2022-10-11T10:13:53.471Z,2.20
2022-10-11T10:16:28.018Z,1.55
2022-10-11T10:19:15.966Z,1.77
2022-10-11T10:21:51.614Z,1.65
2022-10-11T10:24:26.978Z,1.98
2022-10-11T10:27:08.374Z,1.88
2022-10-11T10:29:34.800Z,2.33
2022-10-11T10:32:15.127Z,1.50
2022-10-11T10:34:57.212Z,1.92
2022-10-11T10:37:29.187Z,1.92
2022-10-11T10:40:03.850Z,1.70
2022-10-11T10:42:30.778Z,1.67
2022-10-11T10:44:57.306Z,2.28
2022-10-11T10:48:05.334Z,1.20
2022-10-11T10:50:49.944Z,1.50
2022-10-11T10:53:29.771Z,1.85
2022-10-11T10:56:08.178Z,1.80
2022-10-11T10:58:53.613Z,1.80
2022-10-11T11:01:26.375Z,1.90
2022-10-11T11:03:58.487Z,1.35
2022-10-11T11:06:54.168Z,1.55
2022-10-11T11:09:33.195Z,1.58
2022-10-11T11:12:06.371Z,1.70
2022-10-11T11:15:14.296Z,1.17
2022-10-11T11:17:59.361Z,1.58
2022-10-11T11:20:59.675Z,1.35
2022-10-11T11:23:39.273Z,1.48
2022-10-11T11:26:33.266Z,1.13
2022-10-11T11:29:20.893Z,1.40
2022-10-11T11:32:13.702Z,0.85
2022-10-11T11:35:08.231Z,1.35
2022-10-11T11:37:38.667Z,2.15
2022-10-11T11:40:13.878Z,1.70
2022-10-11T11:42:48.040Z,1.95
2022-10-11T11:45:29.197Z,0.95
2022-10-11T11:48:20.331Z,1.10
2022-10-11T11:50:56.464Z,1.88
2022-10-11T11:53:50.932Z,1.40
2022-10-11T11:56:30.485Z,1.20
2022-10-11T11:59:10.861Z,1.30
2022-10-11T12:01:49.612Z,1.52
2022-10-11T12:04:21.547Z,1.70
2022-10-11T12:07:17.677Z,1.67
2022-10-11T12:12:31.739Z,1.40
2022-10-11T12:17:56.449Z,1.80
2022-10-11T12:20:35.191Z,1.23
2022-10-11T12:23:29.205Z,1.95
2022-10-11T12:26:28.149Z,1.67
2022-10-11T12:29:00.535Z,1.38
2022-10-11T12:31:33.852Z,1.30
2022-10-11T12:34:09.087Z,1.50
2022-10-11T12:36:57.016Z,1.50
2022-10-11T12:39:23.352Z,1.63
2022-10-11T12:41:49.607Z,1.00
2022-10-11T12:44:19.010Z,1.73
2022-10-11T12:46:53.439Z,1.52
2022-10-11T12:49:47.562Z,1.23
2022-10-11T12:52:16.687Z,1.40
2022-10-11T12:54:58.253Z,1.13
2022-10-11T12:58:22.289Z,1.52
2022-10-11T13:00:51.655Z,1.48
2022-10-11T13:03:47.754Z,1.20
2022-10-11T13:06:19.182Z,1.20
2022-10-11T13:08:52.437Z,1.20
2022-10-11T13:11:22.475Z,1.40
2022-10-11T13:13:57.548Z,1.38
2022-10-11T13:16:28.473Z,1.13
2022-10-11T13:18:58.424Z,1.05
2022-10-11T13:21:36.493Z,1.27
2022-10-11T13:24:18.204Z,1.52
2022-10-11T13:26:49.172Z,1.20
2022-10-11T13:29:18.556Z,1.25
2022-10-11T13:31:47.464Z,1.40
2022-10-11T13:34:14.619Z,1.05
2022-10-11T13:36:42.380Z,1.27
2022-10-11T13:39:30.709Z,0.93
2022-10-11T13:41:59.239Z,1.58
2022-10-11T13:44:27.759Z,1.35
2022-10-11T13:46:54.484Z,0.85
2022-10-11T13:49:35.302Z,1.20
2022-10-11T13:52:04.314Z,1.25
2022-10-11T13:54:57.280Z,1.33
2022-10-11T13:57:41.309Z,0.90
2022-10-11T14:00:23.840Z,1.73
2022-10-11T14:02:57.059Z,1.13
2022-10-11T14:05:36.437Z,1.38
2022-10-11T14:08:07.548Z,1.08
2022-10-11T14:10:34.268Z,0.80
2022-10-11T14:13:07.788Z,0.90
2022-10-11T14:15:38.159Z,0.80
2022-10-11T14:18:42.446Z,1.23
2022-10-11T14:21:43.286Z,1.25
2022-10-11T14:24:09.696Z,0.93
2022-10-11T14:26:42.336Z,1.23
2022-10-11T14:29:15.920Z,0.90
2022-10-11T14:31:42.474Z,0.88
2022-10-11T14:34:17.881Z,1.20
2022-10-11T14:36:44.397Z,7.65
2022-10-11T14:39:17.129Z,2.78
2022-10-11T14:41:43.746Z,1.17
2022-10-11T14:44:10.305Z,1.00
2022-10-11T14:46:37.298Z,1.05
2022-10-11T14:49:12.308Z,1.23
2022-10-11T14:51:39.302Z,1.40
2022-10-11T14:54:05.689Z,1.40
2022-10-11T14:56:32.235Z,1.10
2022-10-11T14:58:58.762Z,0.85
2022-10-11T15:01:25.255Z,1.50
2022-10-11T15:03:51.722Z,0.68
2022-10-11T15:06:21.370Z,1.02
2022-10-11T15:08:48.171Z,1.25
2022-10-11T15:11:17.651Z,1.02
2022-10-11T15:13:44.975Z,1.17
2022-10-11T15:16:17.435Z,0.93
2022-10-11T15:18:43.949Z,0.77
2022-10-11T15:21:14.286Z,1.25
2022-10-11T15:23:40.984Z,1.27
2022-10-11T15:26:07.973Z,1.35
2022-10-11T15:28:34.804Z,1.60
2022-10-11T15:31:01.330Z,0.93
2022-10-11T15:33:27.746Z,1.08
2022-10-11T15:35:54.088Z,1.15
2022-10-11T15:38:23.832Z,0.95
2022-10-11T15:40:51.826Z,0.93
2022-10-11T15:43:23.526Z,1.00
2022-10-11T15:45:51.387Z,0.80
2022-10-11T15:48:18.953Z,1.20
2022-10-11T15:50:45.823Z,1.00
2022-10-11T15:53:18.025Z,1.50
2022-10-11T15:55:47.164Z,1.30
2022-10-11T15:58:21.280Z,1.23
2022-10-11T16:00:50.653Z,0.85
2022-10-11T16:03:18.039Z,1.88
2022-10-11T16:05:44.570Z,1.80
2022-10-11T16:08:11.069Z,2.30
2022-10-11T16:10:37.542Z,3.33
2022-10-11T16:13:04.026Z,3.50
2022-10-11T16:15:31.497Z,2.95
2022-10-11T16:17:57.997Z,3.42
2022-10-11T16:20:24.412Z,2.97
2022-10-11T16:22:52.596Z,7.07
2022-10-11T16:25:20.190Z,5.13
2022-10-11T16:27:46.860Z,4.40
2022-10-11T16:30:15.200Z,4.00
2022-10-11T16:32:42.274Z,4.57
2022-10-11T16:35:09.145Z,3.83
2022-10-11T16:37:35.659Z,4.40
2022-10-11T16:40:02.780Z,4.32
2022-10-11T16:42:29.149Z,4.65
2022-10-11T16:44:56.335Z,4.47
2022-10-11T16:47:22.748Z,6.93
2022-10-11T16:49:49.150Z,16.42
2022-10-11T16:52:16.312Z,5.75
2022-10-11T16:54:46.785Z,4.05
2022-10-11T16:57:16.106Z,4.80
2022-10-11T16:59:42.467Z,8.15
2022-10-11T17:02:18.518Z,7.95
2022-10-11T17:04:45.652Z,5.05
2022-10-11T17:07:12.873Z,5.75
2022-10-11T17:09:43.904Z,5.60
2022-10-11T17:12:12.305Z,5.38
2022-10-11T17:14:39.702Z,7.45
2022-10-11T17:17:07.353Z,7.78
2022-10-11T17:19:34.059Z,8.43
2022-10-11T17:22:00.679Z,6.75
2022-10-11T17:24:27.175Z,6.75
2022-10-11T17:26:54.560Z,11.38
2022-10-11T17:29:21.150Z,14.23
2022-10-11T17:31:49.373Z,11.00
2022-10-11T17:34:17.171Z,8.93
2022-10-11T17:36:44.145Z,8.48
2022-10-11T17:39:16.801Z,6.28
2022-10-11T17:41:44.033Z,5.10
2022-10-11T17:44:11.198Z,6.90
2022-10-11T17:46:37.974Z,2.33
2022-10-11T17:49:06.780Z,1.95
2022-10-11T17:51:35.134Z,1.95
2022-10-11T17:54:01.693Z,2.65
2022-10-11T17:56:32.424Z,5.85
2022-10-11T17:59:01.638Z,9.85
2022-10-11T18:01:29.395Z,8.60
2022-10-11T18:03:58.913Z,6.43
2022-10-11T18:06:27.502Z,7.40
2022-10-11T18:08:54.293Z,9.05
2022-10-11T18:11:21.632Z,8.70
2022-10-11T18:13:50.151Z,7.72
2022-10-11T18:16:18.847Z,5.97
2022-10-11T18:18:45.494Z,5.57
2022-10-11T18:21:12.167Z,4.15
2022-10-11T18:23:38.847Z,4.20
2022-10-11T18:26:10.479Z,5.05
2022-10-11T18:28:37.068Z,4.63
2022-10-11T18:31:12.886Z,5.30
2022-10-11T18:33:39.850Z,8.25
2022-10-11T18:36:08.074Z,13.40
2022-10-11T18:38:35.552Z,11.07
2022-10-11T18:41:07.026Z,7.63
2022-10-11T18:43:34.465Z,6.78
2022-10-11T18:46:09.554Z,5.65
2022-10-11T18:48:36.255Z,6.80
2022-10-11T18:51:08.521Z,6.32
2022-10-11T18:53:36.088Z,7.47
2022-10-11T18:56:05.035Z,5.03
2022-10-11T18:58:33.799Z,5.47
2022-10-11T19:01:15.015Z,3.30
2022-10-11T19:03:42.498Z,3.15
2022-10-11T19:06:12.841Z,4.03
2022-10-11T19:08:39.253Z,5.30
2022-10-11T19:11:07.557Z,5.18
2022-10-11T19:13:42.864Z,3.53
2022-10-11T19:16:12.470Z,4.35
2022-10-11T19:18:44.095Z,3.60
2022-10-11T19:21:13.195Z,5.25
2022-10-11T19:23:42.841Z,3.95
2022-10-11T19:26:15.043Z,3.58
2022-10-11T19:28:41.923Z,4.32
2022-10-11T19:31:10.995Z,5.22
2022-10-11T19:33:37.890Z,5.38
2022-10-11T19:36:05.756Z,16.10
2022-10-11T19:38:36.060Z,10.93
2022-10-11T19:41:04.418Z,9.45
2022-10-11T19:43:31.837Z,7.13
2022-10-11T19:46:06.999Z,7.85
2022-10-11T19:48:37.392Z,7.25
2022-10-11T19:51:09.195Z,6.22
2022-10-11T19:53:36.546Z,5.45
2022-10-11T19:56:04.745Z,5.72
2022-10-11T19:58:31.384Z,4.85
2022-10-11T20:01:07.237Z,4.63
2022-10-11T20:03:34.413Z,4.72
2022-10-11T20:06:05.853Z,5.22
2022-10-11T20:08:33.352Z,5.95
2022-10-11T20:11:01.994Z,5.20
2022-10-11T20:13:33.907Z,7.07
2022-10-11T20:16:10.306Z,5.97
2022-10-11T20:18:37.288Z,5.68
2022-10-11T20:21:06.942Z,5.35
2022-10-11T20:23:35.043Z,4.57
2022-10-11T20:26:05.020Z,9.52
2022-10-11T20:28:33.229Z,21.52
2022-10-11T20:31:00.740Z,9.75
2022-10-11T20:33:29.890Z,11.70
2022-10-11T20:36:01.841Z,12.02
2022-10-11T20:38:30.019Z,7.75
2022-10-11T20:40:56.977Z,8.32
2022-10-11T20:43:23.950Z,8.73
2022-10-11T20:46:04.401Z,7.50
2022-10-11T20:48:32.115Z,6.43
2022-10-11T20:50:58.703Z,6.75
2022-10-11T20:53:25.732Z,5.68
2022-10-11T20:55:52.315Z,5.22
2022-10-11T20:58:19.319Z,7.60
2022-10-11T21:00:45.971Z,8.70
2022-10-11T21:03:12.640Z,5.53
2022-10-11T21:05:39.009Z,5.95
2022-10-11T21:08:05.620Z,4.45
2022-10-11T21:10:32.279Z,4.80
2022-10-11T21:12:58.945Z,5.45
2022-10-11T21:15:25.728Z,7.22
2022-10-11T21:17:52.327Z,5.68
2022-10-11T21:20:18.637Z,5.05
2022-10-11T21:22:44.991Z,5.20
2022-10-11T21:25:11.576Z,5.32
2022-10-11T21:27:37.916Z,4.70
2022-10-11T21:30:04.650Z,4.60
2022-10-11T21:32:31.108Z,4.40
2022-10-11T21:34:57.533Z,4.90
2022-10-11T21:37:24.001Z,5.22
2022-10-11T21:39:50.701Z,4.72
2022-10-11T21:42:17.696Z,4.82
2022-10-11T21:44:44.234Z,5.07
2022-10-11T21:47:10.877Z,4.88
2022-10-11T21:49:37.619Z,4.50
2022-10-11T21:52:04.246Z,4.25
2022-10-11T21:54:30.656Z,4.32
2022-10-11T21:56:56.971Z,4.53
2022-10-11T21:59:23.405Z,4.55
2022-10-11T22:01:49.904Z,5.03
2022-10-11T22:04:16.304Z,4.40
2022-10-11T22:06:42.617Z,4.88
2022-10-11T22:09:09.708Z,4.63
2022-10-11T22:11:36.270Z,3.90
2022-10-11T22:14:03.215Z,3.95
2022-10-11T22:16:29.545Z,4.00
2022-10-11T22:18:56.019Z,5.78
2022-10-11T22:21:23.461Z,4.63
2022-10-11T22:23:52.555Z,4.55
2022-10-11T22:26:25.800Z,4.45
2022-10-11T22:28:52.263Z,3.97
2022-10-11T22:31:20.454Z,5.28
2022-10-11T22:33:46.929Z,4.20
2022-10-11T22:36:14.886Z,4.35
2022-10-11T22:38:42.859Z,4.05
2022-10-11T22:41:09.773Z,4.20
2022-10-11T22:43:36.121Z,4.47
2022-10-11T22:46:02.539Z,4.97
2022-10-11T22:48:29.723Z,5.03
2022-10-11T22:50:56.518Z,4.78
2022-10-11T22:53:23.059Z,4.95
2022-10-11T22:55:49.441Z,5.10
2022-10-11T22:58:16.126Z,4.93
2022-10-11T23:00:43.073Z,4.55
2022-10-11T23:03:13.605Z,5.03
2022-10-11T23:05:39.990Z,5.65
2022-10-11T23:08:06.639Z,5.25
2022-10-11T23:10:33.254Z,4.55
2022-10-11T23:12:59.937Z,4.55
2022-10-11T23:15:26.680Z,4.32
2022-10-11T23:17:52.983Z,4.88
2022-10-11T23:20:19.292Z,4.97
2022-10-11T23:22:45.704Z,5.20
2022-10-11T23:25:12.025Z,4.70
2022-10-11T23:27:39.052Z,4.32
2022-10-11T23:30:06.179Z,4.43
2022-10-11T23:32:32.686Z,4.25
2022-10-11T23:34:59.019Z,4.05
2022-10-11T23:37:25.395Z,4.53
2022-10-11T23:39:51.734Z,4.57
2022-10-11T23:42:18.122Z,5.15
2022-10-11T23:44:44.430Z,4.85
2022-10-11T23:47:10.988Z,5.63
2022-10-11T23:49:37.423Z,6.32
2022-10-11T23:52:03.810Z,4.53
2022-10-11T23:54:30.216Z,3.85
2022-10-11T23:56:56.842Z,4.50
2022-10-11T23:59:23.481Z,4.57
